Time;durP1;ratioP1;P1;durP2;ratioP2;P2;SDS_P1;SDS_P2;PMS_P1;PMS_P2;Temp;Humidity;BMP_temperature;BMP_pressure;BME280_temperature;BME280_humidity;BME280_pressure;Samples;Min_cycle;Max_cycle;Signal;HPM_P1;HPM_P2
2023/06/25 00:01:11;;;;;;;6.20;5.63;;;;;;;18.63;100.00;63926.88;5081797;28;20216;-76
2023/06/25 00:03:38;;;;;;;6.10;5.60;;;;;;;18.67;100.00;63933.66;5078741;28;20197;-76
2023/06/25 00:06:05;;;;;;;6.05;5.45;;;;;;;18.70;100.00;63931.09;5066984;28;20479;-76
2023/06/25 00:08:32;;;;;;;5.85;5.18;;;;;;;18.60;100.00;63931.50;5065255;28;20246;-76
2023/06/25 00:11:00;;;;;;;5.95;5.13;;;;;;;18.74;100.00;63940.94;5072293;28;20238;-77
2023/06/25 00:13:28;;;;;;;6.25;5.32;;;;;;;18.78;100.00;63945.09;5088376;28;20460;-75
2023/06/25 00:15:55;;;;;;;5.85;5.15;;;;;;;18.82;100.00;63946.69;5087951;28;20222;-76
2023/06/25 00:18:26;;;;;;;6.78;4.78;;;;;;;18.85;100.00;63952.41;5079180;28;20196;-76
2023/06/25 00:20:53;;;;;;;5.72;5.18;;;;;;;18.75;100.00;63944.03;5066053;28;20221;-75
2023/06/25 00:23:20;;;;;;;5.45;4.93;;;;;;;18.81;100.00;63942.56;5081700;28;20192;-75
2023/06/25 00:25:47;;;;;;;7.47;4.88;;;;;;;18.82;100.00;63946.16;5071656;28;20228;-75
2023/06/25 00:28:14;;;;;;;6.22;4.60;;;;;;;18.77;100.00;63943.53;5080199;28;20262;-75
2023/06/25 00:30:45;;;;;;;8.50;4.68;;;;;;;18.75;100.00;63938.88;5082381;28;20285;-74
2023/06/25 00:33:12;;;;;;;6.85;5.22;;;;;;;18.79;100.00;63945.63;5086004;28;20211;-76
2023/06/25 00:36:06;;;;;;;5.65;5.00;;;;;;;18.81;100.00;63948.22;5086698;28;20283;-75
2023/06/25 00:38:34;;;;;;;5.10;4.60;;;;;;;18.80;100.00;63944.06;5066195;28;20209;-74
2023/06/25 00:41:01;;;;;;;5.05;4.55;;;;;;;18.80;100.00;63947.19;5068948;28;20276;-76
2023/06/25 00:43:28;;;;;;;4.95;4.07;;;;;;;18.78;100.00;63947.69;5068681;28;20208;-78
2023/06/25 00:45:57;;;;;;;4.93;4.40;;;;;;;18.79;100.00;63946.16;5065185;28;20228;-75
2023/06/25 00:48:25;;;;;;;4.88;4.43;;;;;;;18.76;100.00;63943.00;5066428;28;20456;-74
2023/06/25 00:50:52;;;;;;;7.10;4.32;;;;;;;18.74;100.00;63940.41;5068870;28;20262;-76
2023/06/25 00:53:21;;;;;;;7.38;4.57;;;;;;;18.77;100.00;63946.13;5066047;28;20204;-76
2023/06/25 00:55:50;;;;;;;5.53;4.47;;;;;;;18.80;100.00;63944.06;5084707;28;20231;-76
2023/06/25 00:58:22;;;;;;;4.88;4.10;;;;;;;18.81;100.00;63945.63;5076504;28;20204;-75
2023/06/25 01:00:49;;;;;;;4.30;3.92;;;;;;;18.82;100.00;63946.69;5072857;28;20262;-77
2023/06/25 01:03:28;;;;;;;5.78;4.05;;;;;;;18.80;100.00;63951.81;5080605;28;20228;-74
2023/06/25 01:06:03;;;;;;;4.20;3.78;;;;;;;18.85;100.00;63949.28;5065708;28;20228;-75
2023/06/25 01:08:35;;;;;;;5.85;3.90;;;;;;;18.84;100.00;63948.25;5066074;28;20239;-76
2023/06/25 01:11:04;;;;;;;5.82;4.90;;;;;;;18.87;100.00;63954.50;5073226;28;20223;-76
2023/06/25 01:13:31;;;;;;;6.03;4.05;;;;;;;18.88;100.00;63955.53;5071877;28;20396;-76
2023/06/25 01:15:58;;;;;;;4.72;4.25;;;;;;;18.86;100.00;63945.69;5064854;28;20216;-76
2023/06/25 01:18:27;;;;;;;8.02;4.40;;;;;;;18.87;100.00;63953.97;5065164;28;20192;-74
2023/06/25 01:20:56;;;;;;;8.27;4.50;;;;;;;18.93;100.00;63957.66;5067454;28;20224;-73
2023/06/25 01:23:25;;;;;;;5.93;4.65;;;;;;;18.87;100.00;63951.38;5067547;28;20200;-75
2023/06/25 01:25:52;;;;;;;7.05;4.60;;;;;;;18.82;100.00;63948.75;5065401;28;20239;-75
2023/06/25 01:28:19;;;;;;;10.63;4.70;;;;;;;18.58;100.00;63926.31;5064912;28;20196;-75
2023/06/25 01:30:48;;;;;;;6.63;5.93;;;;;;;18.39;100.00;63904.44;5065266;28;20464;-75
2023/06/25 01:33:16;;;;;;;6.85;6.15;;;;;;;18.27;100.00;63891.94;5066028;28;20197;-76
2023/06/25 01:35:43;;;;;;;6.70;6.10;;;;;;;18.22;100.00;63889.81;5066183;28;20461;-75
2023/06/25 01:38:10;;;;;;;7.97;5.90;;;;;;;18.34;100.00;63899.75;5065777;28;20238;-75
2023/06/25 01:40:38;;;;;;;7.93;6.03;;;;;;;18.06;100.00;63870.56;5070212;28;20545;-73
2023/06/25 01:43:05;;;;;;;7.60;6.10;;;;;;;18.09;100.00;63873.16;5070220;28;20201;-74
2023/06/25 01:45:33;;;;;;;7.15;5.35;;;;;;;18.09;100.00;63871.13;5064676;28;20551;-75
2023/06/25 01:48:00;;;;;;;9.45;5.72;;;;;;;18.11;100.00;63870.09;5064819;28;20355;-74
2023/06/25 01:50:27;;;;;;;11.15;6.72;;;;;;;18.18;100.00;63882.56;5078859;28;20335;-75
2023/06/25 01:52:54;;;;;;;8.07;6.40;;;;;;;18.19;100.00;63878.97;5077438;28;20264;-75
2023/06/25 01:55:21;;;;;;;8.05;6.32;;;;;;;18.22;100.00;63886.72;5064852;28;20254;-76
2023/06/25 01:57:50;;;;;;;7.53;6.03;;;;;;;18.27;100.00;63892.44;5068940;28;20230;-75
2023/06/25 02:00:17;;;;;;;6.93;5.68;;;;;;;18.15;100.00;63879.94;5086651;28;20192;-77
2023/06/25 02:02:44;;;;;;;6.40;5.80;;;;;;;18.14;100.00;63878.38;5082665;28;20208;-75
2023/06/25 02:05:12;;;;;;;10.30;5.38;;;;;;;18.13;100.00;63877.34;5085604;28;20196;-77
2023/06/25 02:07:38;;;;;;;7.57;5.95;;;;;;;18.10;100.00;63876.81;5084631;28;20228;-75
2023/06/25 02:10:06;;;;;;;6.60;6.05;;;;;;;18.13;100.00;63882.50;5071171;28;20205;-77
2023/06/25 02:12:33;;;;;;;8.63;5.78;;;;;;;18.13;100.00;63877.88;5076299;28;20459;-74
2023/06/25 02:15:02;;;;;;;5.78;5.28;;;;;;;18.12;100.00;63879.41;5086188;28;20203;-75
2023/06/25 02:17:29;;;;;;;6.13;5.38;;;;;;;18.00;100.00;63861.75;5073677;28;20232;-76
2023/06/25 02:19:56;;;;;;;7.70;5.75;;;;;;;17.99;100.00;63862.75;5079554;28;20193;-76
2023/06/25 02:22:23;;;;;;;10.48;4.80;;;;;;;18.03;100.00;63862.28;5064002;28;20239;-75
2023/06/25 02:24:49;;;;;;;7.80;5.53;;;;;;;18.04;100.00;63865.38;5078814;28;20205;-76
2023/06/25 02:27:17;;;;;;;6.88;5.32;;;;;;;18.04;100.00;63867.97;5063516;28;20233;-75
2023/06/25 02:29:43;;;;;;;8.95;5.95;;;;;;;18.04;100.00;63867.97;5074374;28;20196;-75
2023/06/25 02:32:12;;;;;;;10.10;5.40;;;;;;;18.06;100.00;63864.91;5084659;28;20318;-75
2023/06/25 02:34:39;;;;;;;8.13;6.43;;;;;;;18.03;100.00;63866.94;5083559;28;20192;-76
2023/06/25 02:37:16;;;;;;;7.85;5.82;;;;;;;18.06;100.00;63868.00;5084264;28;20215;-75
2023/06/25 02:39:43;;;;;;;6.70;5.70;;;;;;;18.06;100.00;63868.00;5081788;28;20208;-76
2023/06/25 02:42:10;;;;;;;9.45;5.75;;;;;;;18.02;100.00;63866.41;5084760;28;20219;-77
2023/06/25 02:44:37;;;;;;;7.50;5.65;;;;;;;18.06;100.00;63870.06;5082216;28;20200;-76
2023/06/25 02:47:05;;;;;;;10.95;5.75;;;;;;;18.11;100.00;63870.63;5086316;28;20236;-75
2023/06/25 02:49:34;;;;;;;11.55;7.05;;;;;;;18.15;100.00;63879.44;5084808;28;20196;-75
2023/06/25 02:52:00;;;;;;;9.40;6.43;;;;;;;18.13;100.00;63880.44;5078708;28;20228;-76
2023/06/25 02:54:27;;;;;;;8.38;6.55;;;;;;;18.17;100.00;63882.03;5063927;28;20411;-76
2023/06/25 02:56:56;;;;;;;12.85;6.22;;;;;;;18.16;100.00;63880.47;5072712;28;20239;-75
2023/06/25 02:59:23;;;;;;;10.05;6.80;;;;;;;18.18;100.00;63877.94;5085000;28;20257;-76
2023/06/25 03:01:49;;;;;;;10.15;6.70;;;;;;;18.25;100.00;63892.44;5073891;28;20591;-75
2023/06/25 03:04:16;;;;;;;10.13;5.95;;;;;;;18.19;100.00;63884.13;5063762;28;20227;-76
2023/06/25 03:06:45;;;;;;;7.75;6.30;;;;;;;18.27;100.00;63891.94;5064009;28;20270;-75
2023/06/25 03:09:12;;;;;;;8.45;6.03;;;;;;;18.29;100.00;63888.88;5069996;28;20203;-75
2023/06/25 03:11:39;;;;;;;10.73;6.13;;;;;;;18.28;100.00;63896.06;5072501;28;20266;-75
2023/06/25 03:14:06;;;;;;;11.25;6.65;;;;;;;18.32;100.00;63897.66;5065512;28;20208;-75
2023/06/25 03:16:33;;;;;;;7.45;6.07;;;;;;;18.30;100.00;63889.91;5086358;28;20250;-75
2023/06/25 03:19:02;;;;;;;7.28;6.22;;;;;;;18.30;100.00;63889.91;5082158;28;20206;-76
2023/06/25 03:21:29;;;;;;;7.28;5.85;;;;;;;18.32;100.00;63894.56;5084148;28;20395;-76
2023/06/25 03:23:57;;;;;;;8.00;6.07;;;;;;;18.35;100.00;63897.69;5074004;28;20204;-77
2023/06/25 03:26:25;;;;;;;8.00;5.72;;;;;;;18.36;100.00;63901.81;5064095;28;20219;-78
2023/06/25 03:28:53;;;;;;;11.55;6.60;;;;;;;18.41;100.00;63901.91;5075666;28;20207;-76
2023/06/25 03:31:20;;;;;;;8.52;5.68;;;;;;;18.40;100.00;63906.03;5086265;28;20217;-76
2023/06/25 03:33:47;;;;;;;12.55;7.45;;;;;;;18.08;100.00;63874.72;5082809;28;20200;-76
2023/06/25 03:36:14;;;;;;;8.27;6.85;;;;;;;17.99;100.00;63862.75;5085033;28;20556;-76
2023/06/25 03:38:42;;;;;;;8.25;6.93;;;;;;;17.95;100.00;63856.53;5082483;28;20272;-77
2023/06/25 03:41:10;;;;;;;10.25;7.60;;;;;;;17.97;100.00;63856.03;5084292;28;20225;-75
2023/06/25 03:43:37;;;;;;;11.48;6.88;;;;;;;17.99;100.00;63865.88;5067775;28;20204;-74
2023/06/25 03:46:04;;;;;;;11.52;7.55;;;;;;;17.93;100.00;63853.94;5070144;28;20220;-77
2023/06/25 03:48:31;;;;;;;11.55;7.55;;;;;;;17.97;100.00;63861.19;5087717;28;20228;-76
2023/06/25 03:50:58;;;;;;;8.35;7.07;;;;;;;17.98;100.00;63862.22;5085990;28;20224;-76
2023/06/25 03:53:26;;;;;;;12.77;7.53;;;;;;;18.04;100.00;63868.50;5087735;28;20222;-76
2023/06/25 03:55:53;;;;;;;10.68;8.45;;;;;;;18.07;100.00;63871.09;5076940;28;20240;-74
2023/06/25 03:58:21;;;;;;;8.23;7.35;;;;;;;18.10;100.00;63874.72;5067511;28;20268;-75
2023/06/25 04:00:49;;;;;;;11.63;7.82;;;;;;;18.11;100.00;63870.09;5081405;28;20288;-77
2023/06/25 04:03:16;;;;;;;15.57;9.23;;;;;;;18.02;100.00;63866.41;5067585;28;20208;-79
2023/06/25 04:05:44;;;;;;;28.17;9.48;;;;;;;17.95;100.00;63853.97;5068298;28;20225;-80
2023/06/25 04:08:11;;;;;;;14.02;7.63;;;;;;;18.03;100.00;63862.28;5067506;28;20224;-77
2023/06/25 04:10:39;;;;;;;9.52;7.32;;;;;;;17.89;100.00;63852.34;5083776;28;20228;-77
2023/06/25 04:13:06;;;;;;;12.30;7.97;;;;;;;17.99;100.00;63860.19;5071537;28;20436;-78
2023/06/25 04:15:34;;;;;;;21.42;10.80;;;;;;;18.05;100.00;63869.53;5089289;28;20230;-78
2023/06/25 04:18:01;;;;;;;15.30;9.57;;;;;;;17.95;100.00;63861.69;5087338;28;20260;-79
2023/06/25 04:20:28;;;;;;;9.48;7.88;;;;;;;17.80;100.00;63840.38;5088204;28;20223;-78
2023/06/25 04:22:55;;;;;;;14.32;8.20;;;;;;;17.82;100.00;63845.56;5086680;28;20208;-78
2023/06/25 04:25:23;;;;;;;14.00;8.30;;;;;;;17.72;100.00;63834.63;5089564;28;20232;-79
2023/06/25 04:27:50;;;;;;;11.50;7.93;;;;;;;17.74;100.00;63837.22;5076043;28;20236;-79
2023/06/25 04:30:17;;;;;;;14.25;7.82;;;;;;;17.60;100.00;63817.50;5069739;28;20197;-80
2023/06/25 04:32:49;;;;;;;11.02;7.97;;;;;;;17.72;100.00;63834.63;5076848;28;20200;-80
2023/06/25 04:35:17;;;;;;;13.55;8.27;;;;;;;17.79;100.00;63841.94;5089919;28;20218;-82
2023/06/25 04:37:44;;;;;;;13.73;7.90;;;;;;;17.73;100.00;63833.63;5090075;28;20203;-80
2023/06/25 04:40:12;;;;;;;10.75;7.95;;;;;;;17.77;100.00;63837.28;5093285;28;20212;-80
2023/06/25 04:42:39;;;;;;;12.93;8.48;;;;;;;17.85;100.00;63845.59;5069895;28;20497;-83
2023/06/25 04:45:07;;;;;;;11.98;7.65;;;;;;;17.87;100.00;63845.09;5069176;28;20497;-79
2023/06/25 04:47:34;;;;;;;13.55;8.60;;;;;;;17.96;100.00;63860.16;5070670;28;20259;-80
2023/06/25 04:50:15;;;;;;;9.45;7.25;;;;;;;17.91;100.00;63854.44;5070026;28;20193;-81
2023/06/25 04:52:42;;;;;;;12.55;8.00;;;;;;;17.87;100.00;63852.84;5075213;28;20223;-80
2023/06/25 04:55:09;;;;;;;12.85;7.95;;;;;;;17.89;100.00;63852.34;5078522;28;20197;-80
2023/06/25 04:57:36;;;;;;;11.05;7.20;;;;;;;17.92;100.00;63861.16;5070119;28;20215;-77
2023/06/25 05:00:05;;;;;;;9.85;7.90;;;;;;;17.93;100.00;63856.53;5067470;28;20247;-79
2023/06/25 05:02:32;;;;;;;7.80;6.90;;;;;;;18.03;100.00;63867.44;5068192;28;20200;-77
2023/06/25 05:04:59;;;;;;;9.93;7.57;;;;;;;18.08;100.00;63872.66;5068125;28;20203;-79
2023/06/25 05:07:27;;;;;;;10.90;7.55;;;;;;;18.12;100.00;63876.31;5066737;28;20228;-78
2023/06/25 05:09:54;;;;;;;7.35;6.32;;;;;;;18.03;100.00;63869.50;5080014;28;20200;-78
2023/06/25 05:12:22;;;;;;;8.40;6.80;;;;;;;18.04;100.00;63870.53;5072082;28;20255;-78
2023/06/25 05:14:48;;;;;;;9.48;7.35;;;;;;;18.13;100.00;63874.75;5067168;28;20228;-78
2023/06/25 05:17:17;;;;;;;8.82;7.38;;;;;;;18.10;100.00;63872.16;5066277;28;20288;-78
2023/06/25 05:19:44;;;;;;;8.73;7.65;;;;;;;18.16;100.00;63881.00;5067237;28;20275;-80
2023/06/25 05:22:10;;;;;;;14.30;8.27;;;;;;;18.24;100.00;63888.81;5068685;28;20213;-78
2023/06/25 05:24:39;;;;;;;12.05;8.95;;;;;;;18.35;100.00;63900.78;5072383;28;20201;-79
2023/06/25 05:27:07;;;;;;;16.27;7.70;;;;;;;18.48;100.00;63913.84;5072558;28;20263;-78
2023/06/25 05:29:34;;;;;;;8.82;7.07;;;;;;;18.37;100.00;63897.72;5080769;28;20188;-81
2023/06/25 05:32:02;;;;;;;7.75;6.93;;;;;;;18.40;100.00;63900.34;5081323;28;20451;-80
2023/06/25 05:34:29;;;;;;;11.27;7.80;;;;;;;18.34;100.00;63899.75;5077691;28;20193;-81
2023/06/25 05:36:56;;;;;;;10.32;7.75;;;;;;;18.46;100.00;63913.81;5075812;28;20216;-80
2023/06/25 05:39:28;;;;;;;9.52;7.88;;;;;;;18.43;100.00;63908.63;5083008;28;20196;-80
2023/06/25 05:41:58;;;;;;;11.43;7.95;;;;;;;18.44;100.00;63907.09;5068377;28;20235;-80
2023/06/25 05:44:25;;;;;;;11.15;7.70;;;;;;;18.41;100.00;63903.97;5066913;28;20200;-79
2023/06/25 05:46:52;;;;;;;12.10;6.88;;;;;;;18.22;100.00;63887.22;5075019;28;20235;-78
2023/06/25 05:49:19;;;;;;;12.70;7.80;;;;;;;18.08;100.00;63872.66;5074128;28;20193;-77
2023/06/25 05:51:46;;;;;;;11.70;8.38;;;;;;;17.99;100.00;63860.72;5078098;28;20240;-79
2023/06/25 05:54:13;;;;;;;12.95;8.52;;;;;;;18.08;100.00;63869.56;5080225;28;20346;-82
2023/06/25 05:56:40;;;;;;;11.80;9.10;;;;;;;18.25;100.00;63889.84;5081493;28;20213;-80
2023/06/25 05:59:08;;;;;;;13.55;8.88;;;;;;;18.41;100.00;63899.31;5073700;28;20271;-80
2023/06/25 06:01:35;;;;;;;11.20;7.63;;;;;;;18.37;100.00;63897.72;5066834;28;20221;-79
2023/06/25 06:04:02;;;;;;;10.25;8.23;;;;;;;18.33;100.00;63895.59;5067981;28;20220;-79
2023/06/25 06:06:29;;;;;;;13.32;8.45;;;;;;;18.38;100.00;63903.91;5076086;28;20219;-78
2023/06/25 06:08:56;;;;;;;9.88;7.95;;;;;;;18.70;100.00;63933.66;5077730;28;20280;-81
2023/06/25 06:11:23;;;;;;;8.52;7.05;;;;;;;18.90;100.00;63954.50;5080481;28;20284;-78
2023/06/25 06:13:50;;;;;;;8.90;6.45;;;;;;;18.99;100.00;63961.31;5080108;28;20200;-78
2023/06/25 06:16:18;;;;;;;7.00;5.57;;;;;;;19.23;100.00;63986.84;5072360;28;20236;-78
2023/06/25 06:18:45;;;;;;;10.55;7.18;;;;;;;19.27;100.00;63993.09;5066280;28;20551;-78
2023/06/25 06:21:12;;;;;;;6.45;5.78;;;;;;;19.36;100.00;64003.00;5072748;28;20608;-78
2023/06/25 06:23:39;;;;;;;6.05;5.45;;;;;;;19.60;100.00;64027.53;5083157;28;20204;-78
2023/06/25 06:26:06;;;;;;;7.20;5.60;;;;;;;19.73;100.00;64045.72;5086659;28;20295;-77
2023/06/25 06:28:33;;;;;;;8.60;6.32;;;;;;;19.85;100.00;64055.66;5068947;28;20227;-78
2023/06/25 06:31:00;;;;;;;8.02;5.45;;;;;;;20.06;100.00;64077.56;5066742;28;20291;-79
2023/06/25 06:33:28;;;;;;;6.28;5.65;;;;;;;20.40;100.00;64113.59;5077076;28;20205;-76
2023/06/25 06:35:55;;;;;;;8.15;6.18;;;;;;;20.53;100.00;64118.88;5072131;28;20221;-77
2023/06/25 06:38:22;;;;;;;8.23;5.47;;;;;;;20.48;100.00;64119.34;5066520;28;20212;-77
2023/06/25 06:40:50;;;;;;;6.43;5.65;;;;;;;20.62;100.00;64133.97;5067872;28;20558;-76
2023/06/25 06:43:16;;;;;;;5.78;5.18;;;;;;;20.85;100.00;64159.53;5063708;28;20380;-77
2023/06/25 06:45:46;;;;;;;7.30;5.50;;;;;;;20.90;100.00;64162.69;5069417;28;20239;-79
2023/06/25 06:48:14;;;;;;;6.65;4.78;;;;;;;20.85;100.00;64151.75;5077318;28;20236;-77
2023/06/25 06:50:43;;;;;;;5.10;4.70;;;;;;;20.90;100.00;64162.16;5073532;28;20207;-77
2023/06/25 06:53:10;;;;;;;4.82;4.45;;;;;;;20.75;100.00;64146.50;5065409;28;20212;-77
2023/06/25 06:55:36;;;;;;;6.88;4.25;;;;;;;20.62;100.00;64133.47;5068059;28;20227;-77
2023/06/25 06:58:08;;;;;;;5.10;4.70;;;;;;;20.58;100.00;64127.22;5073642;28;20215;-77
2023/06/25 07:00:35;;;;;;;5.50;4.90;;;;;;;20.35;100.00;64107.84;5076031;28;20217;-77
2023/06/25 07:03:02;;;;;;;7.72;5.28;;;;;;;20.30;100.00;64103.16;5065345;28;20203;-76
2023/06/25 07:05:29;;;;;;;5.05;4.65;;;;;;;20.14;100.00;64085.94;5067677;28;20220;-77
2023/06/25 07:07:57;;;;;;;5.18;4.68;;;;;;;20.14;100.00;64089.03;5068905;28;20410;-77
2023/06/25 07:10:24;;;;;;;6.03;4.38;;;;;;;20.42;100.00;64115.16;5069261;28;20224;-76
2023/06/25 07:12:51;;;;;;;5.22;4.82;;;;;;;20.57;100.00;64123.56;5064139;28;20258;-78
2023/06/25 07:15:18;;;;;;;5.10;4.60;;;;;;;20.74;100.00;64145.47;5067670;28;20205;-77
2023/06/25 07:17:45;;;;;;;5.53;4.05;;;;;;;20.61;100.00;64135.53;5067737;28;20227;-76
2023/06/25 07:20:13;;;;;;;4.40;4.10;;;;;;;20.75;100.00;64143.91;5083105;28;20200;-77
2023/06/25 07:22:40;;;;;;;4.20;3.90;;;;;;;20.74;100.00;64148.56;5084833;28;20200;-76
2023/06/25 07:25:10;;;;;;;4.55;4.15;;;;;;;20.84;100.00;64159.00;5073156;28;20192;-78
2023/06/25 07:27:38;;;;;;;3.30;3.10;;;;;;;20.79;100.00;64150.69;5067896;28;20193;-77
2023/06/25 07:30:06;;;;;;;15.55;13.38;;;;;;;21.02;100.00;64177.81;5068185;28;20201;-77
2023/06/25 07:32:34;;;;;;;3.63;3.40;;;;;;;21.14;100.00;64187.25;5067907;28;20196;-77
2023/06/25 07:35:00;;;;;;;3.80;3.15;;;;;;;21.05;100.00;64178.38;5071721;28;20203;-75
2023/06/25 07:37:28;;;;;;;3.35;3.15;;;;;;;20.83;100.00;64152.28;5069798;28;20212;-78
2023/06/25 07:39:54;;;;;;;4.25;3.55;;;;;;;20.66;100.00;64142.81;5068007;28;20192;-77
2023/06/25 07:42:23;;;;;;;4.32;3.92;;;;;;;20.79;100.00;64145.50;5074447;28;20239;-76
2023/06/25 07:44:50;;;;;;;4.03;3.63;;;;;;;20.57;100.00;64130.81;5085508;28;20204;-77
2023/06/25 07:47:16;;;;;;;5.85;3.80;;;;;;;20.65;100.00;64139.69;5089461;28;20367;-76
2023/06/25 07:49:43;;;;;;;4.07;3.80;;;;;;;21.05;100.00;64175.78;5091220;28;20231;-78
2023/06/25 07:52:11;;;;;;;4.90;3.45;;;;;;;21.64;100.00;64244.66;5072704;28;20220;-78
2023/06/25 07:54:39;;;;;;;3.92;3.72;;;;;;;21.59;100.00;64234.75;5085363;28;20200;-77
2023/06/25 07:57:06;;;;;;;4.35;3.50;;;;;;;21.60;100.00;64238.41;5087914;28;20463;-76
2023/06/25 07:59:35;;;;;;;4.22;3.92;;;;;;;21.95;100.00;64274.47;5085896;28;20192;-77
2023/06/25 08:02:02;;;;;;;5.90;3.80;;;;;;;22.01;100.00;64280.22;5082096;28;20224;-76
2023/06/25 08:04:29;;;;;;;3.30;3.10;;;;;;;21.94;100.00;64270.31;5070552;28;20220;-75
2023/06/25 08:06:55;;;;;;;3.33;3.13;;;;;;;22.01;100.00;64280.75;5068999;28;20460;-76
2023/06/25 08:09:22;;;;;;;6.53;3.90;;;;;;;22.10;100.00;64287.56;5069560;28;20529;-76
2023/06/25 08:11:49;;;;;;;4.32;3.95;;;;;;;22.09;100.00;64286.00;5075581;28;20216;-76
2023/06/25 08:14:17;;;;;;;4.65;4.20;;;;;;;21.89;100.00;64263.00;5067561;28;20193;-77
2023/06/25 08:16:45;;;;;;;5.80;4.95;;;;;;;21.65;100.00;64241.03;5067536;28;20224;-78
2023/06/25 08:19:12;;;;;;;5.47;4.97;;;;;;;21.72;100.00;64250.41;5069067;28;20260;-76
2023/06/25 08:21:39;;;;;;;4.75;4.30;;;;;;;21.20;100.00;64193.50;5067025;28;20256;-76
2023/06/25 08:24:07;;;;;;;5.20;4.25;;;;;;;21.33;100.00;64207.09;5068213;28;20547;-74
2023/06/25 08:26:34;;;;;;;5.55;5.05;;;;;;;21.53;100.00;64225.38;5064417;28;20212;-77
2023/06/25 08:29:01;;;;;;;6.03;5.07;;;;;;;21.36;100.00;64213.34;5067033;28;20236;-77
2023/06/25 08:31:28;;;;;;;7.82;5.30;;;;;;;21.55;100.00;64233.16;5067552;28;20270;-77
2023/06/25 08:33:57;;;;;;;6.82;5.28;;;;;;;21.39;100.00;64211.28;5069645;28;20205;-76
2023/06/25 08:36:24;;;;;;;9.88;5.25;;;;;;;21.22;100.00;64200.78;5066333;28;20243;-76
2023/06/25 08:38:51;;;;;;;4.93;4.53;;;;;;;21.11;100.00;64187.22;5066830;28;20489;-76
2023/06/25 08:41:18;;;;;;;5.00;4.55;;;;;;;20.96;100.00;64168.44;5068428;28;20221;-77
2023/06/25 08:43:46;;;;;;;6.93;5.57;;;;;;;20.59;100.00;64127.72;5068226;28;20193;-76
2023/06/25 08:46:15;;;;;;;5.40;4.90;;;;;;;20.43;100.00;64113.63;5068455;28;20229;-76
2023/06/25 08:48:44;;;;;;;7.18;5.63;;;;;;;20.65;100.00;64136.59;5067802;28;20228;-76
2023/06/25 08:51:17;;;;;;;6.32;5.68;;;;;;;20.65;100.00;64136.59;5066977;28;20526;-76
2023/06/25 08:53:44;;;;;;;6.78;5.18;;;;;;;20.66;100.00;64140.22;5066785;28;20200;-79
2023/06/25 08:56:15;;;;;;;6.05;5.53;;;;;;;20.72;100.00;64143.38;5067748;28;20267;-76
2023/06/25 08:58:42;;;;;;;7.82;5.78;;;;;;;20.74;100.00;64148.56;5067087;28;20204;-76
2023/06/25 09:01:12;;;;;;;12.38;7.25;;;;;;;21.34;100.00;64208.13;5067725;28;20536;-77
2023/06/25 09:03:39;;;;;;;7.18;5.90;;;;;;;21.86;100.00;64262.47;5071729;28;20523;-77
2023/06/25 09:06:14;;;;;;;6.93;5.78;;;;;;;21.90;100.00;64269.25;5087229;28;20246;-77
2023/06/25 09:08:42;;;;;;;6.28;5.68;;;;;;;22.57;100.00;64338.78;5085958;28;20231;-77
2023/06/25 09:11:10;;;;;;;6.28;5.47;;;;;;;23.27;100.00;64408.84;5068280;28;20222;-77
2023/06/25 09:13:38;;;;;;;6.35;5.75;;;;;;;23.48;100.00;64430.84;5067127;28;20209;-77
2023/06/25 09:16:07;;;;;;;6.40;5.78;;;;;;;23.85;100.00;64466.94;5067846;28;20255;-79
2023/06/25 09:18:35;;;;;;;5.78;5.28;;;;;;;24.07;95.84;64495.22;5067303;28;20358;-77
2023/06/25 09:21:03;;;;;;;7.60;5.68;;;;;;;24.41;93.59;64525.59;5067644;28;20275;-79
2023/06/25 09:23:31;;;;;;;5.65;5.00;;;;;;;24.93;87.53;64582.16;5068834;28;20219;-78
2023/06/25 09:25:59;;;;;;;5.95;5.35;;;;;;;24.66;89.06;64556.47;5067596;28;20247;-79
2023/06/25 09:28:26;;;;;;;6.95;5.97;;;;;;;24.61;89.83;64554.34;5066336;28;20467;-78
2023/06/25 09:30:57;;;;;;;5.80;5.30;;;;;;;24.55;91.41;64542.88;5076627;28;20509;-78
2023/06/25 09:33:32;;;;;;;6.20;4.75;;;;;;;24.63;85.66;64553.31;5087437;28;20200;-77
2023/06/25 09:36:01;;;;;;;5.15;4.75;;;;;;;24.83;88.86;64574.28;5076628;28;20270;-79
2023/06/25 09:38:28;;;;;;;5.68;5.18;;;;;;;25.35;82.11;64628.22;5067653;28;20209;-78
2023/06/25 09:40:59;;;;;;;4.70;4.40;;;;;;;25.41;81.91;64635.06;5065601;28;20221;-77
2023/06/25 09:43:26;;;;;;;4.88;4.47;;;;;;;25.13;84.29;64606.22;5066288;28;20251;-78
2023/06/25 09:45:54;;;;;;;4.65;4.13;;;;;;;24.80;80.57;64569.06;5081929;28;20220;-77
2023/06/25 09:48:23;;;;;;;4.15;3.85;;;;;;;24.13;86.36;64498.88;5084277;28;20204;-78
2023/06/25 09:50:53;;;;;;;4.22;3.83;;;;;;;23.82;87.85;64469.03;5085419;28;20235;-76
2023/06/25 09:53:26;;;;;;;5.07;4.50;;;;;;;23.88;89.67;64470.09;5086935;28;20245;-77
2023/06/25 09:55:55;;;;;;;4.90;4.45;;;;;;;23.71;89.92;64458.03;5086243;28;20283;-75
2023/06/25 09:58:26;;;;;;;5.00;4.25;;;;;;;23.28;93.27;64412.53;5083452;28;20204;-77
2023/06/25 10:00:54;;;;;;;5.13;4.70;;;;;;;23.73;90.07;64457.53;5086172;28;20544;-77
2023/06/25 10:03:23;;;;;;;4.45;4.15;;;;;;;24.05;84.90;64490.53;5074862;28;20250;-77
2023/06/25 10:05:51;;;;;;;4.15;3.67;;;;;;;24.39;82.64;64523.50;5064749;28;20450;-76
2023/06/25 10:08:18;;;;;;;3.60;3.30;;;;;;;24.08;80.68;64500.94;5067170;28;20280;-75
2023/06/25 10:10:56;;;;;;;4.15;3.92;;;;;;;23.65;85.23;64451.22;5067461;28;20549;-76
2023/06/25 10:13:25;;;;;;;4.43;3.50;;;;;;;23.36;88.50;64420.91;5065500;28;20203;-78
2023/06/25 10:15:57;;;;;;;3.97;3.75;;;;;;;23.38;87.47;64426.13;5063905;28;20217;-77
2023/06/25 10:18:25;;;;;;;3.80;3.50;;;;;;;23.73;88.37;64457.53;5066302;28;20200;-79
2023/06/25 10:20:57;;;;;;;3.90;3.70;;;;;;;23.89;81.59;64473.75;5066159;28;20278;-76
2023/06/25 10:23:25;;;;;;;3.80;3.60;;;;;;;23.59;86.17;64442.88;5065991;28;20201;-78
2023/06/25 10:25:53;;;;;;;4.00;3.70;;;;;;;24.00;85.25;64485.28;5067140;28;20410;-76
2023/06/25 10:28:28;;;;;;;3.70;3.40;;;;;;;23.96;83.94;64484.22;5067034;28;20204;-78
2023/06/25 10:30:57;;;;;;;4.20;3.90;;;;;;;24.08;83.14;64495.72;5064905;28;20262;-77
2023/06/25 10:33:25;;;;;;;3.58;3.38;;;;;;;23.97;86.98;64484.72;5065971;28;20536;-75
2023/06/25 10:35:56;;;;;;;4.35;4.05;;;;;;;24.18;86.18;64506.22;5065628;28;20578;-76
2023/06/25 10:38:24;;;;;;;4.10;3.80;;;;;;;24.27;86.88;64513.00;5066512;28;20232;-77
2023/06/25 10:40:51;;;;;;;4.00;3.55;;;;;;;23.92;88.70;64480.00;5065296;28;20416;-76
2023/06/25 10:43:19;;;;;;;4.22;3.92;;;;;;;23.98;89.72;64480.56;5065632;28;20200;-79
2023/06/25 10:45:49;;;;;;;4.50;4.13;;;;;;;24.05;83.71;64487.91;5065759;28;20255;-76
2023/06/25 10:48:18;;;;;;;3.95;3.65;;;;;;;23.81;88.70;64471.13;5071308;28;20211;-78
2023/06/25 10:50:45;;;;;;;3.63;3.42;;;;;;;24.11;85.53;64494.19;5073440;28;20236;-78
2023/06/25 10:53:14;;;;;;;4.15;3.85;;;;;;;24.26;84.43;64514.56;5073186;28;20510;-80
2023/06/25 10:55:45;;;;;;;3.88;3.67;;;;;;;24.22;83.43;64510.91;5069034;28;20564;-77
2023/06/25 10:58:16;;;;;;;4.68;4.30;;;;;;;24.44;81.71;64533.41;5081092;28;20205;-76
2023/06/25 11:00:43;;;;;;;4.25;3.95;;;;;;;24.51;79.76;64543.34;5069701;28;20545;-76
2023/06/25 11:03:10;;;;;;;4.75;4.35;;;;;;;24.14;81.26;64502.00;5069570;28;20501;-75
2023/06/25 11:05:41;;;;;;;4.20;3.90;;;;;;;24.30;77.31;64516.69;5072348;28;20200;-79
2023/06/25 11:08:08;;;;;;;3.50;3.20;;;;;;;24.20;81.63;64508.81;5083936;28;20200;-77
2023/06/25 11:10:37;;;;;;;3.88;3.55;;;;;;;23.83;79.99;64462.78;5079539;28;20224;-76
2023/06/25 11:13:04;;;;;;;3.47;3.25;;;;;;;23.93;81.92;64480.53;5088597;28;20200;-78
2023/06/25 11:15:32;;;;;;;3.67;3.42;;;;;;;23.97;84.83;64482.66;5080364;28;20259;-79
2023/06/25 11:18:00;;;;;;;3.80;3.50;;;;;;;23.92;83.06;64476.88;5069077;28;20189;-77
2023/06/25 11:20:28;;;;;;;3.38;3.17;;;;;;;23.98;90.32;64486.31;5080316;28;20250;-76
2023/06/25 11:22:58;;;;;;;4.00;3.70;;;;;;;24.33;86.96;64521.91;5069531;28;20201;-80
2023/06/25 11:25:26;;;;;;;5.47;4.25;;;;;;;24.25;80.28;64514.06;5070056;28;20241;-76
2023/06/25 11:28:02;;;;;;;5.50;4.28;;;;;;;24.14;81.87;64499.94;5070056;28;20243;-76